South Saint Paul, Minnesota
Current Conditions -  °F | °C
As of 4:30 AM on Sunday 21 Dec 2014 (Local Time) from KSGS Reporting Station
Haze Haze  
Wind Chill: 25°   Ceiling: 600
Heat Index: 32°   Visibility: 5mi
Dew Point: 31°   Wind: 8mph
Humidity: 94%   Direction: 150°SSE
Pressure: 29.97"   Gusts: NA
Location:  44.89°N, 93.03°W
Report Text: KSGS 211030Z AUTO 15007KT 5SM BR OVC006 00/M01 A2997 RMK AO2 T00021006
Loading
Personal Weather Stations






























Interactive Weather Map New forecast layout! Learn more

10-Day Weather Forecast

Advertisements
Track Severe Weather on mobile